sensor_id;sensor_type;location;lat;lon;timestamp;P1;durP1;ratioP1;P2;durP2;ratioP2
47353;SDS011;50657;48.830;2.282;2022-07-15T00:02:08;2.83;;;1.13;;
47353;SDS011;50657;48.830;2.282;2022-07-15T00:04:36;0.40;;;0.40;;
47353;SDS011;50657;48.830;2.282;2022-07-15T00:07:04;0.10;;;0.10;;
47353;SDS011;50657;48.830;2.282;2022-07-15T00:09:33;1.15;;;0.30;;
47353;SDS011;50657;48.830;2.282;2022-07-15T00:12:18;0.65;;;0.20;;
47353;SDS011;50657;48.830;2.282;2022-07-15T00:14:45;0.25;;;0.10;;
47353;SDS011;50657;48.830;2.282;2022-07-15T00:17:12;0.55;;;0.13;;
47353;SDS011;50657;48.830;2.282;2022-07-15T00:19:39;0.10;;;0.10;;
47353;SDS011;50657;48.830;2.282;2022-07-15T00:22:07;0.30;;;0.30;;
47353;SDS011;50657;48.830;2.282;2022-07-15T00:24:35;0.30;;;0.20;;
47353;SDS011;50657;48.830;2.282;2022-07-15T00:27:03;0.28;;;0.28;;
47353;SDS011;50657;48.830;2.282;2022-07-15T00:29:30;0.17;;;0.10;;
47353;SDS011;50657;48.830;2.282;2022-07-15T00:31:58;0.63;;;0.30;;
47353;SDS011;50657;48.830;2.282;2022-07-15T00:34:25;0.50;;;0.30;;
47353;SDS011;50657;48.830;2.282;2022-07-15T00:36:52;0.40;;;0.40;;
47353;SDS011;50657;48.830;2.282;2022-07-15T00:39:19;0.90;;;0.10;;
47353;SDS011;50657;48.830;2.282;2022-07-15T00:41:48;0.10;;;0.10;;
47353;SDS011;50657;48.830;2.282;2022-07-15T00:44:15;0.90;;;0.28;;
47353;SDS011;50657;48.830;2.282;2022-07-15T00:46:42;0.20;;;0.17;;
47353;SDS011;50657;48.830;2.282;2022-07-15T00:49:10;1.33;;;0.15;;
47353;SDS011;50657;48.830;2.282;2022-07-15T00:51:38;0.10;;;0.10;;
47353;SDS011;50657;48.830;2.282;2022-07-15T00:54:08;0.30;;;0.10;;
47353;SDS011;50657;48.830;2.282;2022-07-15T00:56:36;0.90;;;0.10;;
47353;SDS011;50657;48.830;2.282;2022-07-15T00:59:06;0.15;;;0.10;;
47353;SDS011;50657;48.830;2.282;2022-07-15T01:01:35;0.55;;;0.10;;
47353;SDS011;50657;48.830;2.282;2022-07-15T01:04:02;0.63;;;0.20;;
47353;SDS011;50657;48.830;2.282;2022-07-15T01:06:30;0.10;;;0.10;;
47353;SDS011;50657;48.830;2.282;2022-07-15T01:08:58;0.43;;;0.20;;
47353;SDS011;50657;48.830;2.282;2022-07-15T01:11:26;0.40;;;0.20;;
47353;SDS011;50657;48.830;2.282;2022-07-15T01:13:57;0.68;;;0.30;;
47353;SDS011;50657;48.830;2.282;2022-07-15T01:16:26;0.43;;;0.40;;
47353;SDS011;50657;48.830;2.282;2022-07-15T01:18:53;0.38;;;0.10;;
47353;SDS011;50657;48.830;2.282;2022-07-15T01:21:25;0.20;;;0.10;;
47353;SDS011;50657;48.830;2.282;2022-07-15T01:23:54;0.25;;;0.10;;
47353;SDS011;50657;48.830;2.282;2022-07-15T01:26:40;0.50;;;0.10;;
47353;SDS011;50657;48.830;2.282;2022-07-15T01:29:10;1.65;;;0.20;;
47353;SDS011;50657;48.830;2.282;2022-07-15T01:31:37;0.20;;;0.10;;
47353;SDS011;50657;48.830;2.282;2022-07-15T01:34:05;0.10;;;0.10;;
47353;SDS011;50657;48.830;2.282;2022-07-15T01:36:34;0.28;;;0.10;;
47353;SDS011;50657;48.830;2.282;2022-07-15T01:39:02;1.42;;;0.50;;
47353;SDS011;50657;48.830;2.282;2022-07-15T01:41:30;0.20;;;0.20;;
47353;SDS011;50657;48.830;2.282;2022-07-15T01:43:57;0.10;;;0.10;;
47353;SDS011;50657;48.830;2.282;2022-07-15T01:46:24;0.17;;;0.10;;
47353;SDS011;50657;48.830;2.282;2022-07-15T01:48:51;0.17;;;0.10;;
47353;SDS011;50657;48.830;2.282;2022-07-15T01:51:40;1.08;;;0.10;;
47353;SDS011;50657;48.830;2.282;2022-07-15T01:54:07;0.10;;;0.10;;
47353;SDS011;50657;48.830;2.282;2022-07-15T01:56:35;0.15;;;0.10;;
47353;SDS011;50657;48.830;2.282;2022-07-15T01:59:03;0.28;;;0.10;;
47353;SDS011;50657;48.830;2.282;2022-07-15T02:01:31;0.52;;;0.10;;
47353;SDS011;50657;48.830;2.282;2022-07-15T02:04:03;1.52;;;0.10;;
47353;SDS011;50657;48.830;2.282;2022-07-15T02:06:30;0.20;;;0.20;;
47353;SDS011;50657;48.830;2.282;2022-07-15T02:08:59;0.75;;;0.10;;
47353;SDS011;50657;48.830;2.282;2022-07-15T02:11:29;0.20;;;0.10;;
47353;SDS011;50657;48.830;2.282;2022-07-15T02:13:56;0.10;;;0.10;;
47353;SDS011;50657;48.830;2.282;2022-07-15T02:16:26;0.20;;;0.10;;
47353;SDS011;50657;48.830;2.282;2022-07-15T02:18:55;0.17;;;0.10;;
47353;SDS011;50657;48.830;2.282;2022-07-15T02:21:22;0.30;;;0.10;;
47353;SDS011;50657;48.830;2.282;2022-07-15T02:23:51;0.10;;;0.00;;
47353;SDS011;50657;48.830;2.282;2022-07-15T02:26:20;0.55;;;0.20;;
47353;SDS011;50657;48.830;2.282;2022-07-15T02:28:48;0.35;;;0.10;;
47353;SDS011;50657;48.830;2.282;2022-07-15T02:31:15;0.40;;;0.10;;
47353;SDS011;50657;48.830;2.282;2022-07-15T02:33:43;0.85;;;0.30;;
47353;SDS011;50657;48.830;2.282;2022-07-15T02:36:10;0.20;;;0.20;;
47353;SDS011;50657;48.830;2.282;2022-07-15T02:38:39;0.15;;;0.10;;
47353;SDS011;50657;48.830;2.282;2022-07-15T02:41:08;0.20;;;0.17;;
47353;SDS011;50657;48.830;2.282;2022-07-15T02:43:40;0.17;;;0.10;;
47353;SDS011;50657;48.830;2.282;2022-07-15T02:46:09;0.17;;;0.17;;
47353;SDS011;50657;48.830;2.282;2022-07-15T02:48:37;0.63;;;0.63;;
47353;SDS011;50657;48.830;2.282;2022-07-15T02:51:06;0.55;;;0.20;;
47353;SDS011;50657;48.830;2.282;2022-07-15T02:53:33;0.50;;;0.50;;
47353;SDS011;50657;48.830;2.282;2022-07-15T02:56:06;0.10;;;0.10;;
47353;SDS011;50657;48.830;2.282;2022-07-15T02:58:34;2.55;;;0.10;;
47353;SDS011;50657;48.830;2.282;2022-07-15T03:01:03;0.13;;;0.13;;
47353;SDS011;50657;48.830;2.282;2022-07-15T03:03:32;0.10;;;0.10;;
47353;SDS011;50657;48.830;2.282;2022-07-15T03:06:00;0.20;;;0.20;;
47353;SDS011;50657;48.830;2.282;2022-07-15T03:08:27;0.00;;;0.00;;
47353;SDS011;50657;48.830;2.282;2022-07-15T03:10:54;0.75;;;0.10;;
47353;SDS011;50657;48.830;2.282;2022-07-15T03:13:21;0.38;;;0.10;;
47353;SDS011;50657;48.830;2.282;2022-07-15T03:15:51;0.50;;;0.10;;
47353;SDS011;50657;48.830;2.282;2022-07-15T03:18:19;0.15;;;0.10;;
47353;SDS011;50657;48.830;2.282;2022-07-15T03:20:48;0.17;;;0.10;;
47353;SDS011;50657;48.830;2.282;2022-07-15T03:23:15;0.17;;;0.10;;
47353;SDS011;50657;48.830;2.282;2022-07-15T03:25:43;0.25;;;0.10;;
47353;SDS011;50657;48.830;2.282;2022-07-15T03:28:12;0.25;;;0.10;;
47353;SDS011;50657;48.830;2.282;2022-07-15T03:30:40;0.10;;;0.10;;
47353;SDS011;50657;48.830;2.282;2022-07-15T03:33:11;0.43;;;0.10;;
47353;SDS011;50657;48.830;2.282;2022-07-15T03:35:42;0.30;;;0.30;;
47353;SDS011;50657;48.830;2.282;2022-07-15T03:38:10;0.17;;;0.10;;
47353;SDS011;50657;48.830;2.282;2022-07-15T03:40:37;0.10;;;0.10;;
47353;SDS011;50657;48.830;2.282;2022-07-15T03:43:04;0.40;;;0.10;;
47353;SDS011;50657;48.830;2.282;2022-07-15T03:45:33;0.10;;;0.10;;
47353;SDS011;50657;48.830;2.282;2022-07-15T03:48:00;0.30;;;0.30;;
47353;SDS011;50657;48.830;2.282;2022-07-15T03:50:32;0.55;;;0.10;;
47353;SDS011;50657;48.830;2.282;2022-07-15T03:53:02;0.82;;;0.40;;
47353;SDS011;50657;48.830;2.282;2022-07-15T03:55:29;0.10;;;0.10;;
47353;SDS011;50657;48.830;2.282;2022-07-15T03:57:57;0.10;;;0.10;;
47353;SDS011;50657;48.830;2.282;2022-07-15T04:00:24;0.80;;;0.45;;
47353;SDS011;50657;48.830;2.282;2022-07-15T04:02:51;0.00;;;0.00;;
47353;SDS011;50657;48.830;2.282;2022-07-15T04:05:18;0.05;;;0.03;;
47353;SDS011;50657;48.830;2.282;2022-07-15T04:07:45;0.08;;;0.00;;
47353;SDS011;50657;48.830;2.282;2022-07-15T04:10:14;0.70;;;0.43;;
47353;SDS011;50657;48.830;2.282;2022-07-15T04:12:41;1.45;;;0.10;;
47353;SDS011;50657;48.830;2.282;2022-07-15T04:15:09;0.10;;;0.10;;
47353;SDS011;50657;48.830;2.282;2022-07-15T04:17:36;0.10;;;0.10;;
47353;SDS011;50657;48.830;2.282;2022-07-15T04:20:04;0.52;;;0.10;;
47353;SDS011;50657;48.830;2.282;2022-07-15T04:22:37;0.43;;;0.10;;
47353;SDS011;50657;48.830;2.282;2022-07-15T04:25:05;0.43;;;0.00;;
47353;SDS011;50657;48.830;2.282;2022-07-15T04:27:35;0.32;;;0.20;;
47353;SDS011;50657;48.830;2.282;2022-07-15T04:30:02;0.43;;;0.10;;
47353;SDS011;50657;48.830;2.282;2022-07-15T04:32:39;1.10;;;0.25;;
47353;SDS011;50657;48.830;2.282;2022-07-15T04:35:06;0.10;;;0.10;;
47353;SDS011;50657;48.830;2.282;2022-07-15T04:37:34;0.38;;;0.10;;
47353;SDS011;50657;48.830;2.282;2022-07-15T04:40:01;0.30;;;0.10;;
47353;SDS011;50657;48.830;2.282;2022-07-15T04:42:30;0.77;;;0.10;;
47353;SDS011;50657;48.830;2.282;2022-07-15T04:44:59;0.10;;;0.10;;
47353;SDS011;50657;48.830;2.282;2022-07-15T04:47:26;0.20;;;0.10;;
47353;SDS011;50657;48.830;2.282;2022-07-15T04:49:57;0.35;;;0.10;;
47353;SDS011;50657;48.830;2.282;2022-07-15T04:52:58;0.40;;;0.20;;
47353;SDS011;50657;48.830;2.282;2022-07-15T04:55:25;0.00;;;0.00;;
47353;SDS011;50657;48.830;2.282;2022-07-15T04:58:01;0.45;;;0.08;;
47353;SDS011;50657;48.830;2.282;2022-07-15T05:00:29;0.10;;;0.10;;
47353;SDS011;50657;48.830;2.282;2022-07-15T05:02:57;0.10;;;0.10;;
47353;SDS011;50657;48.830;2.282;2022-07-15T05:05:26;0.20;;;0.20;;
47353;SDS011;50657;48.830;2.282;2022-07-15T05:07:55;0.40;;;0.10;;
47353;SDS011;50657;48.830;2.282;2022-07-15T05:10:22;0.38;;;0.10;;
47353;SDS011;50657;48.830;2.282;2022-07-15T05:12:59;0.35;;;0.10;;
47353;SDS011;50657;48.830;2.282;2022-07-15T05:15:30;1.42;;;0.10;;
47353;SDS011;50657;48.830;2.282;2022-07-15T05:18:08;0.20;;;0.10;;
47353;SDS011;50657;48.830;2.282;2022-07-15T05:20:36;0.10;;;0.10;;
47353;SDS011;50657;48.830;2.282;2022-07-15T05:23:03;0.90;;;0.30;;
47353;SDS011;50657;48.830;2.282;2022-07-15T05:25:35;0.10;;;0.10;;
47353;SDS011;50657;48.830;2.282;2022-07-15T05:28:02;0.10;;;0.10;;
47353;SDS011;50657;48.830;2.282;2022-07-15T05:30:31;0.52;;;0.10;;
47353;SDS011;50657;48.830;2.282;2022-07-15T05:33:01;0.43;;;0.10;;
47353;SDS011;50657;48.830;2.282;2022-07-15T05:35:28;0.68;;;0.10;;
47353;SDS011;50657;48.830;2.282;2022-07-15T05:37:55;0.20;;;0.10;;
47353;SDS011;50657;48.830;2.282;2022-07-15T05:40:27;1.25;;;0.17;;
47353;SDS011;50657;48.830;2.282;2022-07-15T05:42:55;0.43;;;0.17;;
47353;SDS011;50657;48.830;2.282;2022-07-15T05:45:22;0.10;;;0.10;;
47353;SDS011;50657;48.830;2.282;2022-07-15T05:48:03;0.52;;;0.10;;
47353;SDS011;50657;48.830;2.282;2022-07-15T05:50:36;0.52;;;0.20;;
47353;SDS011;50657;48.830;2.282;2022-07-15T05:53:04;0.20;;;0.20;;
47353;SDS011;50657;48.830;2.282;2022-07-15T05:55:32;0.52;;;0.52;;
47353;SDS011;50657;48.830;2.282;2022-07-15T05:58:00;0.80;;;0.10;;
47353;SDS011;50657;48.830;2.282;2022-07-15T06:00:32;0.10;;;0.10;;
47353;SDS011;50657;48.830;2.282;2022-07-15T06:03:00;1.30;;;0.10;;
47353;SDS011;50657;48.830;2.282;2022-07-15T06:05:30;0.60;;;0.10;;
47353;SDS011;50657;48.830;2.282;2022-07-15T06:08:00;0.08;;;0.08;;
47353;SDS011;50657;48.830;2.282;2022-07-15T06:10:32;0.10;;;0.08;;
47353;SDS011;50657;48.830;2.282;2022-07-15T06:13:00;0.40;;;0.20;;
47353;SDS011;50657;48.830;2.282;2022-07-15T06:15:27;0.20;;;0.10;;
47353;SDS011;50657;48.830;2.282;2022-07-15T06:17:56;0.10;;;0.10;;
47353;SDS011;50657;48.830;2.282;2022-07-15T06:20:26;1.13;;;0.10;;
47353;SDS011;50657;48.830;2.282;2022-07-15T06:22:54;0.15;;;0.10;;
47353;SDS011;50657;48.830;2.282;2022-07-15T06:25:22;1.27;;;0.00;;
47353;SDS011;50657;48.830;2.282;2022-07-15T06:27:50;0.47;;;0.10;;
47353;SDS011;50657;48.830;2.282;2022-07-15T06:30:17;0.20;;;0.10;;
47353;SDS011;50657;48.830;2.282;2022-07-15T06:32:44;0.10;;;0.10;;
47353;SDS011;50657;48.830;2.282;2022-07-15T06:35:11;0.08;;;0.08;;
47353;SDS011;50657;48.830;2.282;2022-07-15T06:37:39;0.10;;;0.00;;
47353;SDS011;50657;48.830;2.282;2022-07-15T06:40:08;0.10;;;0.10;;
47353;SDS011;50657;48.830;2.282;2022-07-15T06:42:36;0.10;;;0.10;;
47353;SDS011;50657;48.830;2.282;2022-07-15T06:45:06;0.10;;;0.10;;
47353;SDS011;50657;48.830;2.282;2022-07-15T06:47:38;0.50;;;0.10;;
47353;SDS011;50657;48.830;2.282;2022-07-15T06:50:06;0.10;;;0.10;;
47353;SDS011;50657;48.830;2.282;2022-07-15T06:52:34;1.55;;;0.10;;
47353;SDS011;50657;48.830;2.282;2022-07-15T06:55:04;0.20;;;0.20;;
47353;SDS011;50657;48.830;2.282;2022-07-15T06:57:33;0.73;;;0.10;;
47353;SDS011;50657;48.830;2.282;2022-07-15T07:00:00;0.15;;;0.10;;
47353;SDS011;50657;48.830;2.282;2022-07-15T07:02:28;0.43;;;0.10;;
47353;SDS011;50657;48.830;2.282;2022-07-15T07:04:57;0.70;;;0.10;;
47353;SDS011;50657;48.830;2.282;2022-07-15T07:07:24;0.40;;;0.10;;
47353;SDS011;50657;48.830;2.282;2022-07-15T07:09:51;1.23;;;0.10;;
47353;SDS011;50657;48.830;2.282;2022-07-15T07:12:18;0.10;;;0.10;;
47353;SDS011;50657;48.830;2.282;2022-07-15T07:14:46;1.58;;;0.10;;
47353;SDS011;50657;48.830;2.282;2022-07-15T07:17:13;0.60;;;0.10;;
47353;SDS011;50657;48.830;2.282;2022-07-15T07:19:40;0.10;;;0.10;;
47353;SDS011;50657;48.830;2.282;2022-07-15T07:22:08;0.10;;;0.10;;
47353;SDS011;50657;48.830;2.282;2022-07-15T07:24:35;7.82;;;0.17;;
47353;SDS011;50657;48.830;2.282;2022-07-15T07:27:02;3.22;;;0.30;;
47353;SDS011;50657;48.830;2.282;2022-07-15T07:29:30;5.10;;;0.35;;
47353;SDS011;50657;48.830;2.282;2022-07-15T07:31:58;5.68;;;0.47;;
47353;SDS011;50657;48.830;2.282;2022-07-15T07:34:25;0.45;;;0.45;;
47353;SDS011;50657;48.830;2.282;2022-07-15T07:36:52;1.70;;;0.25;;
47353;SDS011;50657;48.830;2.282;2022-07-15T07:39:19;1.30;;;0.13;;
47353;SDS011;50657;48.830;2.282;2022-07-15T07:41:46;2.78;;;0.35;;
47353;SDS011;50657;48.830;2.282;2022-07-15T07:44:18;6.80;;;0.10;;
47353;SDS011;50657;48.830;2.282;2022-07-15T07:46:45;0.95;;;0.10;;
47353;SDS011;50657;48.830;2.282;2022-07-15T07:49:14;0.60;;;0.22;;
47353;SDS011;50657;48.830;2.282;2022-07-15T07:51:41;0.95;;;0.32;;
47353;SDS011;50657;48.830;2.282;2022-07-15T07:54:08;0.85;;;0.20;;
47353;SDS011;50657;48.830;2.282;2022-07-15T07:56:35;2.47;;;0.20;;
47353;SDS011;50657;48.830;2.282;2022-07-15T07:59:02;2.90;;;0.10;;
47353;SDS011;50657;48.830;2.282;2022-07-15T08:01:29;5.05;;;0.30;;
47353;SDS011;50657;48.830;2.282;2022-07-15T08:03:56;15.10;;;1.60;;
47353;SDS011;50657;48.830;2.282;2022-07-15T08:06:25;1.80;;;0.40;;
47353;SDS011;50657;48.830;2.282;2022-07-15T08:08:52;15.38;;;1.15;;
47353;SDS011;50657;48.830;2.282;2022-07-15T08:11:19;4.30;;;0.20;;
47353;SDS011;50657;48.830;2.282;2022-07-15T08:13:46;11.23;;;0.10;;
47353;SDS011;50657;48.830;2.282;2022-07-15T08:16:13;33.28;;;1.33;;
47353;SDS011;50657;48.830;2.282;2022-07-15T08:18:40;7.85;;;0.20;;
47353;SDS011;50657;48.830;2.282;2022-07-15T08:21:09;1.95;;;0.30;;
47353;SDS011;50657;48.830;2.282;2022-07-15T08:23:37;6.32;;;1.35;;
47353;SDS011;50657;48.830;2.282;2022-07-15T08:26:04;0.50;;;0.10;;
47353;SDS011;50657;48.830;2.282;2022-07-15T08:28:33;23.60;;;6.72;;
47353;SDS011;50657;48.830;2.282;2022-07-15T08:31:00;11.85;;;4.80;;
47353;SDS011;50657;48.830;2.282;2022-07-15T08:33:27;13.15;;;2.28;;
47353;SDS011;50657;48.830;2.282;2022-07-15T08:35:54;2.80;;;0.80;;
47353;SDS011;50657;48.830;2.282;2022-07-15T08:38:21;4.43;;;0.50;;
47353;SDS011;50657;48.830;2.282;2022-07-15T08:40:50;2.92;;;0.20;;
47353;SDS011;50657;48.830;2.282;2022-07-15T08:43:17;1.92;;;0.17;;
47353;SDS011;50657;48.830;2.282;2022-07-15T08:45:44;3.05;;;0.73;;
47353;SDS011;50657;48.830;2.282;2022-07-15T08:48:12;3.15;;;0.43;;
47353;SDS011;50657;48.830;2.282;2022-07-15T08:50:39;1.10;;;0.10;;
47353;SDS011;50657;48.830;2.282;2022-07-15T08:53:08;3.05;;;0.85;;
47353;SDS011;50657;48.830;2.282;2022-07-15T08:55:35;0.20;;;0.20;;
47353;SDS011;50657;48.830;2.282;2022-07-15T08:58:04;2.15;;;0.10;;
47353;SDS011;50657;48.830;2.282;2022-07-15T09:00:31;0.90;;;0.35;;
47353;SDS011;50657;48.830;2.282;2022-07-15T09:02:59;1.70;;;0.52;;
47353;SDS011;50657;48.830;2.282;2022-07-15T09:05:30;3.38;;;0.20;;
47353;SDS011;50657;48.830;2.282;2022-07-15T09:08:00;0.70;;;0.30;;
47353;SDS011;50657;48.830;2.282;2022-07-15T09:10:42;5.65;;;0.17;;
47353;SDS011;50657;48.830;2.282;2022-07-15T09:13:15;5.25;;;0.47;;
47353;SDS011;50657;48.830;2.282;2022-07-15T09:15:49;0.98;;;0.10;;
47353;SDS011;50657;48.830;2.282;2022-07-15T09:18:20;1.33;;;0.10;;
47353;SDS011;50657;48.830;2.282;2022-07-15T09:20:48;0.90;;;0.10;;
47353;SDS011;50657;48.830;2.282;2022-07-15T09:23:16;1.85;;;0.15;;
47353;SDS011;50657;48.830;2.282;2022-07-15T09:25:54;1.95;;;0.20;;
47353;SDS011;50657;48.830;2.282;2022-07-15T09:28:34;6.75;;;1.05;;
47353;SDS011;50657;48.830;2.282;2022-07-15T09:31:02;1.00;;;0.10;;
47353;SDS011;50657;48.830;2.282;2022-07-15T09:33:49;4.88;;;0.38;;
47353;SDS011;50657;48.830;2.282;2022-07-15T09:36:18;3.38;;;0.10;;
47353;SDS011;50657;48.830;2.282;2022-07-15T09:38:48;0.70;;;0.10;;
47353;SDS011;50657;48.830;2.282;2022-07-15T09:41:20;2.53;;;0.65;;
47353;SDS011;50657;48.830;2.282;2022-07-15T09:43:54;1.02;;;0.10;;
47353;SDS011;50657;48.830;2.282;2022-07-15T09:46:23;0.35;;;0.30;;
47353;SDS011;50657;48.830;2.282;2022-07-15T09:48:53;2.70;;;0.10;;
47353;SDS011;50657;48.830;2.282;2022-07-15T09:51:20;1.58;;;0.10;;
47353;SDS011;50657;48.830;2.282;2022-07-15T09:53:49;7.13;;;0.10;;
47353;SDS011;50657;48.830;2.282;2022-07-15T09:56:18;3.03;;;0.20;;
47353;SDS011;50657;48.830;2.282;2022-07-15T09:58:48;2.38;;;0.90;;
47353;SDS011;50657;48.830;2.282;2022-07-15T10:01:18;13.73;;;0.22;;
47353;SDS011;50657;48.830;2.282;2022-07-15T10:03:45;0.40;;;0.38;;
47353;SDS011;50657;48.830;2.282;2022-07-15T10:06:15;1.95;;;0.22;;
47353;SDS011;50657;48.830;2.282;2022-07-15T10:08:45;0.10;;;0.10;;
47353;SDS011;50657;48.830;2.282;2022-07-15T10:11:14;1.20;;;0.10;;
47353;SDS011;50657;48.830;2.282;2022-07-15T10:13:57;0.30;;;0.10;;
47353;SDS011;50657;48.830;2.282;2022-07-15T10:16:45;0.65;;;0.10;;
47353;SDS011;50657;48.830;2.282;2022-07-15T10:19:31;1.65;;;0.10;;
47353;SDS011;50657;48.830;2.282;2022-07-15T10:22:19;2.38;;;0.57;;
47353;SDS011;50657;48.830;2.282;2022-07-15T10:25:07;3.00;;;0.10;;
47353;SDS011;50657;48.830;2.282;2022-07-15T10:27:46;0.47;;;0.13;;
47353;SDS011;50657;48.830;2.282;2022-07-15T10:30:22;2.15;;;0.60;;
47353;SDS011;50657;48.830;2.282;2022-07-15T10:35:39;2.38;;;0.10;;
47353;SDS011;50657;48.830;2.282;2022-07-15T10:38:22;0.20;;;0.20;;
47353;SDS011;50657;48.830;2.282;2022-07-15T10:40:58;1.42;;;0.60;;
47353;SDS011;50657;48.830;2.282;2022-07-15T10:43:36;0.90;;;0.10;;
47353;SDS011;50657;48.830;2.282;2022-07-15T10:46:05;1.98;;;0.10;;
47353;SDS011;50657;48.830;2.282;2022-07-15T10:48:46;3.15;;;0.20;;
47353;SDS011;50657;48.830;2.282;2022-07-15T10:54:10;1.55;;;0.03;;
47353;SDS011;50657;48.830;2.282;2022-07-15T10:56:57;0.10;;;0.08;;
47353;SDS011;50657;48.830;2.282;2022-07-15T10:59:26;2.40;;;0.10;;
47353;SDS011;50657;48.830;2.282;2022-07-15T11:04:40;1.42;;;0.10;;
47353;SDS011;50657;48.830;2.282;2022-07-15T11:07:23;13.77;;;0.15;;
47353;SDS011;50657;48.830;2.282;2022-07-15T11:09:52;1.13;;;0.10;;
47353;SDS011;50657;48.830;2.282;2022-07-15T11:12:21;1.85;;;0.08;;
47353;SDS011;50657;48.830;2.282;2022-07-15T11:14:51;1.38;;;0.10;;
47353;SDS011;50657;48.830;2.282;2022-07-15T11:17:20;7.45;;;0.10;;
47353;SDS011;50657;48.830;2.282;2022-07-15T11:19:53;7.03;;;0.10;;
47353;SDS011;50657;48.830;2.282;2022-07-15T11:22:22;2.72;;;0.15;;
47353;SDS011;50657;48.830;2.282;2022-07-15T11:24:52;5.13;;;0.20;;
47353;SDS011;50657;48.830;2.282;2022-07-15T11:27:20;1.63;;;0.08;;
47353;SDS011;50657;48.830;2.282;2022-07-15T11:29:49;2.00;;;0.10;;
47353;SDS011;50657;48.830;2.282;2022-07-15T11:32:19;1.75;;;0.10;;
47353;SDS011;50657;48.830;2.282;2022-07-15T11:34:48;0.38;;;0.20;;
47353;SDS011;50657;48.830;2.282;2022-07-15T11:37:21;1.25;;;0.00;;
47353;SDS011;50657;48.830;2.282;2022-07-15T11:40:03;0.30;;;0.10;;
47353;SDS011;50657;48.830;2.282;2022-07-15T11:42:33;1.55;;;0.20;;
47353;SDS011;50657;48.830;2.282;2022-07-15T11:45:30;0.77;;;0.38;;
47353;SDS011;50657;48.830;2.282;2022-07-15T11:47:59;0.52;;;0.15;;
47353;SDS011;50657;48.830;2.282;2022-07-15T11:50:26;3.55;;;0.10;;
47353;SDS011;50657;48.830;2.282;2022-07-15T11:52:56;0.10;;;0.10;;
47353;SDS011;50657;48.830;2.282;2022-07-15T11:55:24;0.30;;;0.30;;
47353;SDS011;50657;48.830;2.282;2022-07-15T11:57:52;2.40;;;0.10;;
47353;SDS011;50657;48.830;2.282;2022-07-15T12:00:27;0.73;;;0.10;;
47353;SDS011;50657;48.830;2.282;2022-07-15T12:03:05;0.73;;;0.10;;
47353;SDS011;50657;48.830;2.282;2022-07-15T12:05:33;0.10;;;0.10;;
47353;SDS011;50657;48.830;2.282;2022-07-15T12:08:01;0.70;;;0.00;;
47353;SDS011;50657;48.830;2.282;2022-07-15T12:10:35;0.98;;;0.00;;
47353;SDS011;50657;48.830;2.282;2022-07-15T12:13:04;0.70;;;0.10;;
47353;SDS011;50657;48.830;2.282;2022-07-15T12:15:31;0.17;;;0.10;;
47353;SDS011;50657;48.830;2.282;2022-07-15T12:18:00;0.43;;;0.10;;
47353;SDS011;50657;48.830;2.282;2022-07-15T12:20:28;1.65;;;0.30;;
47353;SDS011;50657;48.830;2.282;2022-07-15T12:23:04;0.00;;;0.00;;
47353;SDS011;50657;48.830;2.282;2022-07-15T12:25:32;2.65;;;0.03;;
47353;SDS011;50657;48.830;2.282;2022-07-15T12:28:00;0.20;;;0.00;;
47353;SDS011;50657;48.830;2.282;2022-07-15T12:30:31;0.00;;;0.00;;
47353;SDS011;50657;48.830;2.282;2022-07-15T12:35:46;0.20;;;0.05;;
47353;SDS011;50657;48.830;2.282;2022-07-15T12:41:04;0.00;;;0.00;;
47353;SDS011;50657;48.830;2.282;2022-07-15T12:43:48;0.47;;;0.00;;
47353;SDS011;50657;48.830;2.282;2022-07-15T12:46:17;0.10;;;0.10;;
47353;SDS011;50657;48.830;2.282;2022-07-15T12:48:45;0.10;;;0.03;;
47353;SDS011;50657;48.830;2.282;2022-07-15T12:51:13;0.00;;;0.00;;
47353;SDS011;50657;48.830;2.282;2022-07-15T12:53:43;0.10;;;0.10;;
47353;SDS011;50657;48.830;2.282;2022-07-15T12:56:11;0.10;;;0.10;;
47353;SDS011;50657;48.830;2.282;2022-07-15T12:58:38;0.10;;;0.00;;
47353;SDS011;50657;48.830;2.282;2022-07-15T13:01:06;0.00;;;0.00;;
47353;SDS011;50657;48.830;2.282;2022-07-15T13:03:35;0.08;;;0.00;;
47353;SDS011;50657;48.830;2.282;2022-07-15T13:06:03;0.10;;;0.08;;
47353;SDS011;50657;48.830;2.282;2022-07-15T13:08:31;0.10;;;0.10;;
47353;SDS011;50657;48.830;2.282;2022-07-15T13:11:01;0.10;;;0.00;;
47353;SDS011;50657;48.830;2.282;2022-07-15T13:13:30;0.10;;;0.10;;
47353;SDS011;50657;48.830;2.282;2022-07-15T13:15:58;0.32;;;0.00;;
47353;SDS011;50657;48.830;2.282;2022-07-15T13:18:27;0.00;;;0.00;;
47353;SDS011;50657;48.830;2.282;2022-07-15T13:20:55;0.20;;;0.10;;
47353;SDS011;50657;48.830;2.282;2022-07-15T13:23:23;0.43;;;0.10;;
47353;SDS011;50657;48.830;2.282;2022-07-15T13:25:51;0.65;;;0.00;;
47353;SDS011;50657;48.830;2.282;2022-07-15T13:28:20;0.30;;;0.10;;
47353;SDS011;50657;48.830;2.282;2022-07-15T13:30:48;0.00;;;0.00;;
47353;SDS011;50657;48.830;2.282;2022-07-15T13:33:16;3.72;;;0.10;;
47353;SDS011;50657;48.830;2.282;2022-07-15T13:35:43;3.22;;;0.10;;
47353;SDS011;50657;48.830;2.282;2022-07-15T13:38:11;1.08;;;0.10;;
47353;SDS011;50657;48.830;2.282;2022-07-15T13:40:38;1.55;;;0.10;;
47353;SDS011;50657;48.830;2.282;2022-07-15T13:43:05;0.20;;;0.10;;
47353;SDS011;50657;48.830;2.282;2022-07-15T13:45:34;0.90;;;0.10;;
47353;SDS011;50657;48.830;2.282;2022-07-15T13:48:01;0.17;;;0.10;;
47353;SDS011;50657;48.830;2.282;2022-07-15T13:50:28;0.32;;;0.08;;
47353;SDS011;50657;48.830;2.282;2022-07-15T13:53:13;0.65;;;0.08;;
47353;SDS011;50657;48.830;2.282;2022-07-15T13:55:40;4.63;;;0.60;;
47353;SDS011;50657;48.830;2.282;2022-07-15T13:58:08;19.30;;;9.48;;
47353;SDS011;50657;48.830;2.282;2022-07-15T14:00:38;38.78;;;22.80;;
47353;SDS011;50657;48.830;2.282;2022-07-15T14:03:09;49.85;;;27.98;;
47353;SDS011;50657;48.830;2.282;2022-07-15T14:05:37;45.60;;;27.67;;
47353;SDS011;50657;48.830;2.282;2022-07-15T14:08:04;48.58;;;30.83;;
47353;SDS011;50657;48.830;2.282;2022-07-15T14:10:32;51.17;;;33.58;;
47353;SDS011;50657;48.830;2.282;2022-07-15T14:12:59;51.55;;;32.20;;
47353;SDS011;50657;48.830;2.282;2022-07-15T14:15:26;56.25;;;32.55;;
47353;SDS011;50657;48.830;2.282;2022-07-15T14:17:54;52.03;;;32.92;;
47353;SDS011;50657;48.830;2.282;2022-07-15T14:20:22;44.38;;;28.10;;
47353;SDS011;50657;48.830;2.282;2022-07-15T14:22:50;41.22;;;25.08;;
47353;SDS011;50657;48.830;2.282;2022-07-15T14:25:17;41.90;;;23.10;;
47353;SDS011;50657;48.830;2.282;2022-07-15T14:27:45;34.70;;;20.63;;
47353;SDS011;50657;48.830;2.282;2022-07-15T14:30:13;29.55;;;18.75;;
47353;SDS011;50657;48.830;2.282;2022-07-15T14:32:42;25.95;;;15.23;;
47353;SDS011;50657;48.830;2.282;2022-07-15T14:35:11;22.60;;;13.32;;
47353;SDS011;50657;48.830;2.282;2022-07-15T14:37:38;27.48;;;14.02;;
47353;SDS011;50657;48.830;2.282;2022-07-15T14:40:05;24.83;;;16.15;;
47353;SDS011;50657;48.830;2.282;2022-07-15T14:42:33;25.00;;;13.23;;
47353;SDS011;50657;48.830;2.282;2022-07-15T14:45:00;27.70;;;11.45;;
47353;SDS011;50657;48.830;2.282;2022-07-15T14:47:28;14.32;;;9.15;;
47353;SDS011;50657;48.830;2.282;2022-07-15T14:49:55;21.63;;;9.32;;
47353;SDS011;50657;48.830;2.282;2022-07-15T14:52:23;7.82;;;6.15;;
47353;SDS011;50657;48.830;2.282;2022-07-15T14:54:51;4.13;;;2.97;;
47353;SDS011;50657;48.830;2.282;2022-07-15T14:57:18;4.93;;;3.60;;
47353;SDS011;50657;48.830;2.282;2022-07-15T14:59:45;6.18;;;3.15;;
47353;SDS011;50657;48.830;2.282;2022-07-15T15:02:12;2.45;;;2.22;;
47353;SDS011;50657;48.830;2.282;2022-07-15T15:04:39;3.35;;;2.15;;
47353;SDS011;50657;48.830;2.282;2022-07-15T15:07:07;2.97;;;1.83;;
47353;SDS011;50657;48.830;2.282;2022-07-15T15:09:35;1.63;;;1.45;;
47353;SDS011;50657;48.830;2.282;2022-07-15T15:12:02;1.25;;;1.15;;
47353;SDS011;50657;48.830;2.282;2022-07-15T15:14:29;0.68;;;0.57;;